createdAt,value
2023-12-29T00:00:20.711Z,19.20
2023-12-29T00:03:06.535Z,20.30
2023-12-29T00:05:51.755Z,21.10
2023-12-29T00:08:37.669Z,22.20
2023-12-29T00:11:23.411Z,18.10
2023-12-29T00:14:09.014Z,19.40
2023-12-29T00:16:57.827Z,20.20
2023-12-29T00:19:43.561Z,21.10
2023-12-29T00:22:29.774Z,21.70
2023-12-29T00:25:15.150Z,23.30
2023-12-29T00:28:00.933Z,23.90
2023-12-29T00:30:57.163Z,24.70
2023-12-29T00:33:47.106Z,26.30
2023-12-29T00:36:33.285Z,24.20
2023-12-29T00:39:19.021Z,20.60
2023-12-29T00:42:06.615Z,21.90
2023-12-29T00:44:51.947Z,22.30
2023-12-29T00:47:37.997Z,25.80
2023-12-29T00:50:23.615Z,25.20
2023-12-29T00:53:09.261Z,24.10
2023-12-29T00:55:56.124Z,27.40
2023-12-29T00:58:41.857Z,21.10
2023-12-29T01:01:27.552Z,23.50
2023-12-29T01:04:13.471Z,23.00
2023-12-29T01:06:58.848Z,23.70
2023-12-29T01:09:44.480Z,20.60
2023-12-29T01:12:30.612Z,23.40
2023-12-29T01:15:16.401Z,24.20
2023-12-29T01:18:02.466Z,24.10
2023-12-29T01:20:48.101Z,24.50
2023-12-29T01:23:33.757Z,23.90
2023-12-29T01:26:19.216Z,26.00
2023-12-29T01:29:06.699Z,22.40
2023-12-29T01:31:52.230Z,23.20
2023-12-29T01:34:38.340Z,23.00
2023-12-29T01:37:24.281Z,25.20
2023-12-29T01:40:10.817Z,19.70
2023-12-29T01:42:56.806Z,20.10
2023-12-29T01:45:49.475Z,18.90
2023-12-29T01:48:41.720Z,20.80
2023-12-29T01:51:27.931Z,23.50
2023-12-29T01:54:13.790Z,23.30
2023-12-29T01:57:02.726Z,20.30
2023-12-29T01:59:49.496Z,25.40
2023-12-29T02:02:35.230Z,23.20
2023-12-29T02:05:25.524Z,22.70
2023-12-29T02:08:11.762Z,20.00
2023-12-29T02:10:57.337Z,21.30
2023-12-29T02:13:43.055Z,23.80
2023-12-29T02:16:39.227Z,21.70
2023-12-29T02:19:46.040Z,21.40
2023-12-29T02:22:31.940Z,24.00
2023-12-29T02:25:17.964Z,22.50
2023-12-29T02:28:23.703Z,20.40
2023-12-29T02:31:18.560Z,29.80
2023-12-29T02:34:11.571Z,22.40
2023-12-29T02:36:59.298Z,22.70
2023-12-29T02:39:44.850Z,24.90
2023-12-29T02:42:31.737Z,23.40
2023-12-29T02:45:18.916Z,26.60
2023-12-29T02:48:05.271Z,27.70
2023-12-29T02:50:51.683Z,27.70
2023-12-29T02:53:37.272Z,25.80
2023-12-29T02:56:23.004Z,26.70
2023-12-29T02:59:08.606Z,26.40
2023-12-29T03:01:54.011Z,27.80
2023-12-29T03:04:40.972Z,25.40
2023-12-29T03:07:26.792Z,25.40
2023-12-29T03:10:12.332Z,23.10
2023-12-29T03:12:58.024Z,27.80
2023-12-29T03:15:43.803Z,23.90
2023-12-29T03:18:30.170Z,23.80
2023-12-29T03:21:15.952Z,21.70
2023-12-29T03:24:01.815Z,25.90
2023-12-29T03:26:47.525Z,25.40
2023-12-29T03:29:33.351Z,24.80
2023-12-29T03:32:19.575Z,19.60
2023-12-29T03:35:05.913Z,23.90
2023-12-29T03:37:51.804Z,19.40
2023-12-29T03:40:37.394Z,21.60
2023-12-29T03:43:23.016Z,23.00
2023-12-29T03:46:22.391Z,20.70
2023-12-29T03:49:08.331Z,27.00
2023-12-29T03:51:53.980Z,23.70
2023-12-29T03:54:39.710Z,21.40
2023-12-29T03:57:25.436Z,23.40
2023-12-29T04:00:15.285Z,25.00
2023-12-29T04:03:02.616Z,19.90
2023-12-29T04:05:48.300Z,23.70
2023-12-29T04:08:34.854Z,24.40
2023-12-29T04:11:20.384Z,23.30
2023-12-29T04:14:06.177Z,26.90
2023-12-29T04:16:51.668Z,19.70
2023-12-29T04:19:37.436Z,20.30
2023-12-29T04:22:23.013Z,18.80
2023-12-29T04:25:09.132Z,21.60
2023-12-29T04:27:55.117Z,25.70
2023-12-29T04:30:40.580Z,22.00
2023-12-29T04:33:26.660Z,20.50
2023-12-29T04:36:12.952Z,17.10
2023-12-29T04:38:58.951Z,21.30
2023-12-29T04:41:44.534Z,21.60
2023-12-29T04:44:30.022Z,20.20
2023-12-29T04:47:17.142Z,24.10
2023-12-29T04:50:03.176Z,24.00
2023-12-29T04:52:49.280Z,24.10
2023-12-29T04:55:34.721Z,26.80
2023-12-29T04:58:20.643Z,23.50
2023-12-29T05:01:06.622Z,22.10
2023-12-29T05:03:52.651Z,21.60
2023-12-29T05:06:38.107Z,20.70
2023-12-29T05:09:23.934Z,24.90
2023-12-29T05:12:09.711Z,22.60
2023-12-29T05:14:55.225Z,21.90
2023-12-29T05:17:40.802Z,24.50
2023-12-29T05:20:26.319Z,23.60
2023-12-29T05:23:11.634Z,21.60
2023-12-29T05:25:57.211Z,21.80
2023-12-29T05:28:43.032Z,23.30
2023-12-29T05:31:28.722Z,22.90
2023-12-29T05:34:14.409Z,23.10
2023-12-29T05:37:00.439Z,24.70
2023-12-29T05:39:46.032Z,22.40
2023-12-29T05:42:31.950Z,22.10
2023-12-29T05:45:18.294Z,22.90
2023-12-29T05:48:04.519Z,25.50
2023-12-29T05:50:53.892Z,23.60
2023-12-29T05:53:42.463Z,26.00
2023-12-29T05:56:28.753Z,24.50
2023-12-29T05:59:14.711Z,25.90
2023-12-29T06:02:00.262Z,26.90
2023-12-29T06:04:46.009Z,26.40
2023-12-29T06:07:31.652Z,26.60
2023-12-29T06:10:17.300Z,25.80
2023-12-29T06:13:03.796Z,26.90
2023-12-29T06:15:49.656Z,24.50
2023-12-29T06:18:36.014Z,25.10
2023-12-29T06:21:21.839Z,27.00
2023-12-29T06:24:07.222Z,30.20
2023-12-29T06:26:53.859Z,33.30
2023-12-29T06:29:42.684Z,30.60
2023-12-29T06:32:28.158Z,25.70
2023-12-29T06:35:14.359Z,27.10
2023-12-29T06:38:00.405Z,27.70
2023-12-29T06:40:46.025Z,23.30
2023-12-29T06:43:31.821Z,21.30
2023-12-29T06:46:17.814Z,22.30
2023-12-29T06:49:04.140Z,23.00
2023-12-29T06:51:49.863Z,21.20
2023-12-29T06:54:35.459Z,22.10
2023-12-29T06:57:21.009Z,22.80
2023-12-29T07:00:07.376Z,21.60
2023-12-29T07:02:53.426Z,21.60
2023-12-29T07:05:38.975Z,21.90
2023-12-29T07:08:24.301Z,18.90
2023-12-29T07:11:12.117Z,20.70
2023-12-29T07:13:57.921Z,19.90
2023-12-29T07:16:44.744Z,22.30
2023-12-29T07:19:37.260Z,25.10
2023-12-29T07:22:22.568Z,19.00
2023-12-29T07:25:08.380Z,20.00
2023-12-29T07:27:56.103Z,18.30
2023-12-29T07:30:42.096Z,18.20
2023-12-29T07:33:27.993Z,18.70
2023-12-29T07:36:15.373Z,20.10
2023-12-29T07:39:01.170Z,15.20
2023-12-29T07:41:49.215Z,19.70
2023-12-29T07:44:34.674Z,17.10
2023-12-29T07:47:20.022Z,20.40
2023-12-29T07:50:06.543Z,19.60
2023-12-29T07:52:52.148Z,18.50
2023-12-29T07:55:39.909Z,18.20
2023-12-29T07:58:25.690Z,17.50
2023-12-29T08:01:11.692Z,18.10
2023-12-29T08:03:57.588Z,17.10
2023-12-29T08:06:43.124Z,15.30
2023-12-29T08:09:29.000Z,23.70
2023-12-29T08:12:14.637Z,18.60
2023-12-29T08:15:01.082Z,17.70
2023-12-29T08:17:46.598Z,17.80
2023-12-29T08:20:32.370Z,18.00
2023-12-29T08:23:18.230Z,17.20
2023-12-29T08:26:04.035Z,15.40
2023-12-29T08:28:49.826Z,17.90
2023-12-29T08:31:35.458Z,21.70
2023-12-29T08:34:21.242Z,17.90
2023-12-29T08:37:07.228Z,21.60
2023-12-29T08:39:53.473Z,18.90
2023-12-29T08:42:39.308Z,20.90
2023-12-29T08:45:25.082Z,17.10
2023-12-29T08:48:10.919Z,18.70
2023-12-29T08:50:57.788Z,21.90
2023-12-29T08:53:43.518Z,20.20
2023-12-29T08:56:29.684Z,19.10
2023-12-29T08:59:15.375Z,18.20
2023-12-29T09:02:00.906Z,17.70
2023-12-29T09:04:47.013Z,17.70
2023-12-29T09:07:32.865Z,17.40
2023-12-29T09:10:19.094Z,16.20
2023-12-29T09:13:06.002Z,16.10
2023-12-29T09:15:51.505Z,17.50
2023-12-29T09:18:37.348Z,19.30
2023-12-29T09:21:23.296Z,15.30
2023-12-29T09:24:09.012Z,16.00
2023-12-29T09:26:54.861Z,19.80
2023-12-29T09:29:40.985Z,17.30
2023-12-29T09:32:26.738Z,15.00
2023-12-29T09:35:20.424Z,16.20
2023-12-29T09:38:06.030Z,16.50
2023-12-29T09:40:54.241Z,18.30
2023-12-29T09:43:41.101Z,17.60
2023-12-29T09:46:32.239Z,17.20
2023-12-29T09:49:19.812Z,20.00
2023-12-29T09:52:10.203Z,16.80
2023-12-29T09:54:55.651Z,17.90
2023-12-29T09:57:42.605Z,20.80
2023-12-29T10:00:30.119Z,17.70
2023-12-29T10:03:15.507Z,21.00
2023-12-29T10:06:08.399Z,18.10
2023-12-29T10:08:57.891Z,18.50
2023-12-29T10:11:49.439Z,21.10
2023-12-29T10:14:50.208Z,19.30
2023-12-29T10:17:51.229Z,19.60
2023-12-29T10:20:59.804Z,21.80
2023-12-29T10:23:58.092Z,21.20
2023-12-29T10:26:44.688Z,20.70
2023-12-29T10:29:30.707Z,19.10
2023-12-29T10:32:16.468Z,20.80
2023-12-29T10:35:10.180Z,26.50
2023-12-29T10:38:09.788Z,23.80
2023-12-29T10:40:55.316Z,19.30
2023-12-29T10:43:45.250Z,23.80
2023-12-29T10:46:31.098Z,24.70
2023-12-29T10:49:18.975Z,23.30
2023-12-29T10:52:13.572Z,26.20
2023-12-29T10:55:08.049Z,23.50
2023-12-29T10:58:01.346Z,22.80
2023-12-29T11:00:47.347Z,17.40
2023-12-29T11:03:32.968Z,18.40
2023-12-29T11:06:18.819Z,17.50
2023-12-29T11:09:05.819Z,18.00
2023-12-29T11:11:52.382Z,20.50
2023-12-29T11:14:40.862Z,19.00
2023-12-29T11:17:27.182Z,21.60
2023-12-29T11:20:15.363Z,17.30
2023-12-29T11:23:02.107Z,14.80
2023-12-29T11:25:49.340Z,19.40
2023-12-29T11:28:35.952Z,17.10
2023-12-29T11:31:22.669Z,19.00
2023-12-29T11:34:16.987Z,20.00
2023-12-29T11:37:19.491Z,19.20
2023-12-29T11:40:34.461Z,21.00
2023-12-29T11:43:20.997Z,20.20
2023-12-29T11:46:06.278Z,18.90
2023-12-29T11:48:57.051Z,21.20
2023-12-29T11:51:49.602Z,18.80
2023-12-29T11:54:36.668Z,18.80
2023-12-29T11:57:34.697Z,26.70
2023-12-29T12:00:21.010Z,21.10
2023-12-29T12:03:27.238Z,21.20
2023-12-29T12:06:41.881Z,24.60
2023-12-29T12:09:27.278Z,21.90
2023-12-29T12:12:13.183Z,20.10
2023-12-29T12:14:59.046Z,21.80
2023-12-29T12:17:47.342Z,19.90
2023-12-29T12:20:33.083Z,20.20
2023-12-29T12:23:20.113Z,21.50
2023-12-29T12:26:06.884Z,19.40
2023-12-29T12:28:54.189Z,17.50
2023-12-29T12:31:56.081Z,18.30
2023-12-29T12:34:42.165Z,19.70
2023-12-29T12:37:30.387Z,17.20
2023-12-29T12:40:27.879Z,17.80
2023-12-29T12:43:17.745Z,18.90
2023-12-29T12:46:05.161Z,19.70
2023-12-29T12:48:52.053Z,16.60
2023-12-29T12:51:38.027Z,17.60
2023-12-29T12:54:24.070Z,17.30
2023-12-29T12:57:09.781Z,16.90
2023-12-29T12:59:56.935Z,17.30
2023-12-29T13:02:47.066Z,14.80
2023-12-29T13:05:33.302Z,18.00
2023-12-29T13:08:26.656Z,21.40
2023-12-29T13:11:22.545Z,16.30
2023-12-29T13:14:08.454Z,19.70
2023-12-29T13:16:53.774Z,20.50
2023-12-29T13:19:41.248Z,18.80
2023-12-29T13:22:29.132Z,18.00
2023-12-29T13:25:21.065Z,16.70
2023-12-29T13:28:08.273Z,21.50
2023-12-29T13:30:55.509Z,23.30
2023-12-29T13:33:56.590Z,19.90
2023-12-29T13:36:54.303Z,22.40
2023-12-29T13:39:46.730Z,23.80
2023-12-29T13:45:20.489Z,22.60
2023-12-29T13:48:08.552Z,22.20
2023-12-29T13:50:55.159Z,21.90
2023-12-29T13:53:41.306Z,24.10
2023-12-29T13:56:27.259Z,20.70
2023-12-29T13:59:13.534Z,25.50
2023-12-29T14:02:04.246Z,24.80
2023-12-29T14:04:50.438Z,21.60
2023-12-29T14:07:36.966Z,22.60
2023-12-29T14:10:22.475Z,24.60
2023-12-29T14:13:09.478Z,26.20
2023-12-29T14:15:59.035Z,23.00
2023-12-29T14:18:47.110Z,24.30
2023-12-29T14:21:34.427Z,26.90
2023-12-29T14:24:21.592Z,29.90
2023-12-29T14:27:08.708Z,28.40
2023-12-29T14:29:54.802Z,29.40
2023-12-29T14:32:40.650Z,28.00
2023-12-29T14:35:26.196Z,29.00
2023-12-29T14:38:17.293Z,33.90
2023-12-29T14:41:04.069Z,28.50
2023-12-29T14:43:50.290Z,29.70
2023-12-29T14:46:37.277Z,33.50
2023-12-29T14:49:23.060Z,28.90
2023-12-29T14:52:08.502Z,35.10
2023-12-29T14:54:53.771Z,30.30
2023-12-29T14:57:39.878Z,28.60
2023-12-29T15:00:25.995Z,30.90
2023-12-29T15:03:12.660Z,29.00
2023-12-29T15:05:59.624Z,29.30
2023-12-29T15:08:45.549Z,28.90
2023-12-29T15:11:31.336Z,31.20
2023-12-29T15:14:16.836Z,32.50
2023-12-29T15:17:02.396Z,30.20
2023-12-29T15:19:48.590Z,36.20
2023-12-29T15:22:34.637Z,30.50
2023-12-29T15:25:20.480Z,31.70
2023-12-29T15:28:07.291Z,35.80
2023-12-29T15:30:53.161Z,33.20
2023-12-29T15:33:38.868Z,35.80
2023-12-29T15:36:24.583Z,34.20
2023-12-29T15:39:10.246Z,37.00
2023-12-29T15:41:55.812Z,36.70
2023-12-29T15:44:41.293Z,42.30
2023-12-29T15:47:26.942Z,36.60
2023-12-29T15:50:12.469Z,36.40
2023-12-29T15:52:58.412Z,37.00
2023-12-29T15:55:44.219Z,30.70
2023-12-29T15:58:30.805Z,30.30
2023-12-29T16:01:26.194Z,28.80
2023-12-29T16:04:11.738Z,32.70
2023-12-29T16:06:57.403Z,31.40
2023-12-29T16:09:43.410Z,37.90
2023-12-29T16:12:29.385Z,28.50
2023-12-29T16:15:15.100Z,29.70
2023-12-29T16:18:00.862Z,32.90
2023-12-29T16:20:46.658Z,35.80
2023-12-29T16:23:33.073Z,31.70
2023-12-29T16:26:25.529Z,28.20
2023-12-29T16:29:13.527Z,29.00
2023-12-29T16:31:58.787Z,26.70
2023-12-29T16:34:44.802Z,26.60
2023-12-29T16:37:38.840Z,23.30
2023-12-29T16:40:24.272Z,26.00
2023-12-29T16:43:10.652Z,24.90
2023-12-29T16:45:56.571Z,23.80
2023-12-29T16:48:43.815Z,24.40
2023-12-29T16:51:30.566Z,22.50
2023-12-29T16:54:16.269Z,25.90
2023-12-29T16:57:03.518Z,23.50
2023-12-29T16:59:49.538Z,24.00
2023-12-29T17:02:35.783Z,24.40
2023-12-29T17:05:24.017Z,25.00
2023-12-29T17:08:09.846Z,26.30
2023-12-29T17:10:55.659Z,22.90
2023-12-29T17:13:41.336Z,22.50
2023-12-29T17:16:30.315Z,21.10
2023-12-29T17:19:21.110Z,18.00
2023-12-29T17:22:07.634Z,21.00
2023-12-29T17:24:53.397Z,24.00
2023-12-29T17:27:39.180Z,21.30
2023-12-29T17:30:24.644Z,22.30
2023-12-29T17:33:10.340Z,20.90
2023-12-29T17:35:56.064Z,21.50
2023-12-29T17:38:43.118Z,25.00
2023-12-29T17:41:29.556Z,22.10
2023-12-29T17:44:15.564Z,21.70
2023-12-29T17:47:00.996Z,23.80
2023-12-29T17:49:46.842Z,23.90
2023-12-29T17:52:32.477Z,22.20
2023-12-29T17:55:18.606Z,20.00
2023-12-29T17:58:04.953Z,25.20
2023-12-29T18:00:51.395Z,24.30
2023-12-29T18:03:37.346Z,22.90
2023-12-29T18:06:24.696Z,23.50
2023-12-29T18:09:15.938Z,22.80
2023-12-29T18:12:03.845Z,21.30
2023-12-29T18:14:53.289Z,22.00
2023-12-29T18:17:39.148Z,26.10
2023-12-29T18:20:25.431Z,23.90
2023-12-29T18:23:11.003Z,22.50
2023-12-29T18:25:57.670Z,22.90
2023-12-29T18:28:43.654Z,21.60
2023-12-29T18:31:29.815Z,29.20
2023-12-29T18:34:16.012Z,21.10
2023-12-29T18:37:01.996Z,23.40
2023-12-29T18:39:49.383Z,25.40
2023-12-29T18:42:35.636Z,24.70
2023-12-29T18:45:24.028Z,27.60
2023-12-29T18:48:09.989Z,24.90
2023-12-29T18:50:55.976Z,27.90
2023-12-29T18:53:41.571Z,25.80
2023-12-29T18:56:27.307Z,26.20
2023-12-29T18:59:13.962Z,30.50
2023-12-29T19:02:00.192Z,30.10
2023-12-29T19:04:51.080Z,25.80
2023-12-29T19:07:36.870Z,26.00
2023-12-29T19:10:22.974Z,29.30
2023-12-29T19:13:08.754Z,28.10
2023-12-29T19:15:54.849Z,26.20
2023-12-29T19:18:40.432Z,32.50
2023-12-29T19:21:28.834Z,32.50
2023-12-29T19:24:14.783Z,29.90
2023-12-29T19:27:00.366Z,30.20
2023-12-29T19:29:46.842Z,30.30
2023-12-29T19:32:37.022Z,34.30
2023-12-29T19:35:26.001Z,27.80
2023-12-29T19:38:16.968Z,25.70
2023-12-29T19:41:05.235Z,27.30
2023-12-29T19:43:51.951Z,29.80
2023-12-29T19:46:42.473Z,31.60
2023-12-29T19:49:30.391Z,30.80
2023-12-29T19:52:19.980Z,27.20
2023-12-29T19:55:06.300Z,26.60
2023-12-29T19:57:52.450Z,26.70
2023-12-29T20:00:38.472Z,25.10
2023-12-29T20:03:24.867Z,34.90
2023-12-29T20:06:22.025Z,28.20
2023-12-29T20:09:08.678Z,26.90
2023-12-29T20:11:54.373Z,26.70
2023-12-29T20:14:40.471Z,29.90
2023-12-29T20:17:27.203Z,30.10
2023-12-29T20:20:17.401Z,25.60
2023-12-29T20:23:04.398Z,30.10
2023-12-29T20:25:55.201Z,29.00
2023-12-29T20:28:40.866Z,29.10
2023-12-29T20:31:29.006Z,30.00
2023-12-29T20:34:15.582Z,30.00
2023-12-29T20:37:01.884Z,25.00
2023-12-29T20:39:50.033Z,30.40
2023-12-29T20:42:36.141Z,27.10
2023-12-29T20:45:22.114Z,27.00
2023-12-29T20:48:08.685Z,26.90
2023-12-29T20:51:00.773Z,28.60
2023-12-29T20:53:51.005Z,27.70
2023-12-29T20:56:37.035Z,33.10
2023-12-29T20:59:23.063Z,30.90
2023-12-29T21:02:08.701Z,34.40
2023-12-29T21:04:54.897Z,32.50
2023-12-29T21:07:41.805Z,33.00
2023-12-29T21:10:27.160Z,31.10
2023-12-29T21:13:12.830Z,32.40
2023-12-29T21:15:59.058Z,34.70
2023-12-29T21:18:45.730Z,32.40
2023-12-29T21:21:38.825Z,31.10
2023-12-29T21:24:24.561Z,31.10
2023-12-29T21:27:10.099Z,32.40
2023-12-29T21:29:55.956Z,29.00
2023-12-29T21:32:42.804Z,29.20
2023-12-29T21:35:29.228Z,32.10
2023-12-29T21:38:15.287Z,29.80
2023-12-29T21:41:02.992Z,37.50
2023-12-29T21:43:48.953Z,29.00
2023-12-29T21:46:42.479Z,30.80
2023-12-29T21:49:30.768Z,31.80
2023-12-29T21:52:16.587Z,29.00
2023-12-29T21:55:02.574Z,33.60
2023-12-29T21:57:48.709Z,33.90
2023-12-29T22:00:34.719Z,30.60
2023-12-29T22:03:20.667Z,31.90
2023-12-29T22:06:06.367Z,32.00
2023-12-29T22:08:51.770Z,32.80
2023-12-29T22:11:37.568Z,29.00
2023-12-29T22:14:23.813Z,37.30
2023-12-29T22:17:09.198Z,33.30
2023-12-29T22:19:54.884Z,30.10
2023-12-29T22:22:40.670Z,32.50
2023-12-29T22:25:29.457Z,28.10
2023-12-29T22:28:15.742Z,29.40
2023-12-29T22:31:01.554Z,32.40
2023-12-29T22:33:47.531Z,30.90
2023-12-29T22:36:33.501Z,31.30
2023-12-29T22:39:18.905Z,32.00
2023-12-29T22:42:04.956Z,29.30
2023-12-29T22:44:50.860Z,33.50
2023-12-29T22:47:39.354Z,33.30
2023-12-29T22:50:24.958Z,34.40
2023-12-29T22:53:10.304Z,37.30
2023-12-29T22:55:56.133Z,31.80
2023-12-29T22:58:55.641Z,34.30
2023-12-29T23:01:41.597Z,33.70
2023-12-29T23:04:27.739Z,32.60
2023-12-29T23:07:13.695Z,27.90
2023-12-29T23:09:59.257Z,29.10
2023-12-29T23:12:44.858Z,28.40
2023-12-29T23:15:31.596Z,28.10
2023-12-29T23:18:17.472Z,30.90
2023-12-29T23:21:03.181Z,30.90
2023-12-29T23:23:48.466Z,31.10
2023-12-29T23:26:41.011Z,29.90
2023-12-29T23:29:26.591Z,28.20
2023-12-29T23:32:12.161Z,28.60
2023-12-29T23:35:05.059Z,27.10
2023-12-29T23:37:55.936Z,34.10
2023-12-29T23:40:42.087Z,26.80
2023-12-29T23:43:27.444Z,29.60
2023-12-29T23:46:13.378Z,28.70
2023-12-29T23:48:59.191Z,26.20
2023-12-29T23:51:44.890Z,41.60
2023-12-29T23:54:31.004Z,30.90
2023-12-29T23:57:16.219Z,31.30
